sensor_id;sensor_type;location;lat;lon;timestamp;P1;durP1;ratioP1;P2;durP2;ratioP2
66183;SDS011;52989;48.796;9.806;2022-08-21T00:02:17;11.93;;;6.93;;
66183;SDS011;52989;48.796;9.806;2022-08-21T00:04:46;9.32;;;6.03;;
66183;SDS011;52989;48.796;9.806;2022-08-21T00:07:12;14.13;;;6.20;;
66183;SDS011;52989;48.796;9.806;2022-08-21T00:09:38;15.85;;;6.78;;
66183;SDS011;52989;48.796;9.806;2022-08-21T00:12:04;20.85;;;10.70;;
66183;SDS011;52989;48.796;9.806;2022-08-21T00:14:31;20.30;;;10.23;;
66183;SDS011;52989;48.796;9.806;2022-08-21T00:16:57;17.13;;;10.82;;
66183;SDS011;52989;48.796;9.806;2022-08-21T00:19:23;20.55;;;10.63;;
66183;SDS011;52989;48.796;9.806;2022-08-21T00:21:50;29.10;;;11.00;;
66183;SDS011;52989;48.796;9.806;2022-08-21T00:24:17;21.73;;;13.90;;
66183;SDS011;52989;48.796;9.806;2022-08-21T00:26:44;21.35;;;10.82;;
66183;SDS011;52989;48.796;9.806;2022-08-21T00:29:10;10.88;;;8.93;;
66183;SDS011;52989;48.796;9.806;2022-08-21T00:31:35;9.57;;;8.27;;
66183;SDS011;52989;48.796;9.806;2022-08-21T00:34:02;10.07;;;7.20;;
66183;SDS011;52989;48.796;9.806;2022-08-21T00:36:28;18.48;;;7.60;;
66183;SDS011;52989;48.796;9.806;2022-08-21T00:38:54;16.02;;;8.88;;
66183;SDS011;52989;48.796;9.806;2022-08-21T00:41:21;22.70;;;8.77;;
66183;SDS011;52989;48.796;9.806;2022-08-21T00:43:48;25.45;;;9.15;;
66183;SDS011;52989;48.796;9.806;2022-08-21T00:46:15;16.13;;;8.63;;
66183;SDS011;52989;48.796;9.806;2022-08-21T00:48:41;15.38;;;8.63;;
66183;SDS011;52989;48.796;9.806;2022-08-21T00:51:12;13.43;;;8.95;;
66183;SDS011;52989;48.796;9.806;2022-08-21T00:53:43;18.27;;;8.43;;
66183;SDS011;52989;48.796;9.806;2022-08-21T00:56:10;14.68;;;8.23;;
66183;SDS011;52989;48.796;9.806;2022-08-21T00:58:39;36.97;;;8.70;;
66183;SDS011;52989;48.796;9.806;2022-08-21T01:01:06;21.02;;;7.70;;
66183;SDS011;52989;48.796;9.806;2022-08-21T01:03:33;14.10;;;7.65;;
66183;SDS011;52989;48.796;9.806;2022-08-21T01:06:00;78.03;;;9.70;;
66183;SDS011;52989;48.796;9.806;2022-08-21T01:08:26;377.17;;;15.88;;
66183;SDS011;52989;48.796;9.806;2022-08-21T01:10:54;223.23;;;13.10;;
66183;SDS011;52989;48.796;9.806;2022-08-21T01:13:21;64.30;;;9.00;;
66183;SDS011;52989;48.796;9.806;2022-08-21T01:15:50;240.25;;;11.48;;
66183;SDS011;52989;48.796;9.806;2022-08-21T01:18:18;89.30;;;9.45;;
66183;SDS011;52989;48.796;9.806;2022-08-21T01:23:42;205.18;;;11.43;;
66183;SDS011;52989;48.796;9.806;2022-08-21T01:26:09;234.20;;;11.52;;
66183;SDS011;52989;48.796;9.806;2022-08-21T01:28:40;156.65;;;11.05;;
66183;SDS011;52989;48.796;9.806;2022-08-21T01:31:10;207.25;;;11.35;;
66183;SDS011;52989;48.796;9.806;2022-08-21T01:33:39;257.42;;;14.60;;
66183;SDS011;52989;48.796;9.806;2022-08-21T01:36:05;217.50;;;14.15;;
66183;SDS011;52989;48.796;9.806;2022-08-21T01:38:31;43.85;;;9.65;;
66183;SDS011;52989;48.796;9.806;2022-08-21T01:40:57;34.28;;;8.60;;
66183;SDS011;52989;48.796;9.806;2022-08-21T01:43:23;47.38;;;8.38;;
66183;SDS011;52989;48.796;9.806;2022-08-21T01:45:49;61.05;;;8.45;;
66183;SDS011;52989;48.796;9.806;2022-08-21T01:48:15;118.30;;;10.05;;
66183;SDS011;52989;48.796;9.806;2022-08-21T01:50:40;17.48;;;8.20;;
66183;SDS011;52989;48.796;9.806;2022-08-21T01:53:06;25.35;;;7.68;;
66183;SDS011;52989;48.796;9.806;2022-08-21T01:55:31;15.27;;;7.43;;
66183;SDS011;52989;48.796;9.806;2022-08-21T01:57:57;23.08;;;7.25;;
66183;SDS011;52989;48.796;9.806;2022-08-21T02:00:24;15.75;;;7.38;;
66183;SDS011;52989;48.796;9.806;2022-08-21T02:02:50;11.35;;;6.43;;
66183;SDS011;52989;48.796;9.806;2022-08-21T02:05:17;12.23;;;6.68;;
66183;SDS011;52989;48.796;9.806;2022-08-21T02:07:45;13.32;;;7.40;;
66183;SDS011;52989;48.796;9.806;2022-08-21T02:10:14;12.73;;;7.35;;
66183;SDS011;52989;48.796;9.806;2022-08-21T02:12:43;17.25;;;7.32;;
66183;SDS011;52989;48.796;9.806;2022-08-21T02:15:08;15.50;;;7.65;;
66183;SDS011;52989;48.796;9.806;2022-08-21T02:17:51;15.63;;;7.82;;
66183;SDS011;52989;48.796;9.806;2022-08-21T02:20:23;8.95;;;6.45;;
66183;SDS011;52989;48.796;9.806;2022-08-21T02:23:12;11.90;;;6.97;;
66183;SDS011;52989;48.796;9.806;2022-08-21T02:25:38;14.05;;;6.60;;
66183;SDS011;52989;48.796;9.806;2022-08-21T02:28:11;12.93;;;5.78;;
66183;SDS011;52989;48.796;9.806;2022-08-21T02:30:40;8.18;;;5.60;;
66183;SDS011;52989;48.796;9.806;2022-08-21T02:33:10;9.40;;;5.00;;
66183;SDS011;52989;48.796;9.806;2022-08-21T02:35:37;12.82;;;4.95;;
66183;SDS011;52989;48.796;9.806;2022-08-21T02:38:07;12.65;;;5.18;;
66183;SDS011;52989;48.796;9.806;2022-08-21T02:40:36;13.93;;;5.93;;
66183;SDS011;52989;48.796;9.806;2022-08-21T02:43:04;9.73;;;6.03;;
66183;SDS011;52989;48.796;9.806;2022-08-21T02:45:30;13.73;;;7.13;;
66183;SDS011;52989;48.796;9.806;2022-08-21T02:47:57;10.68;;;7.45;;
66183;SDS011;52989;48.796;9.806;2022-08-21T02:50:32;10.93;;;7.35;;
66183;SDS011;52989;48.796;9.806;2022-08-21T02:53:02;16.90;;;7.40;;
66183;SDS011;52989;48.796;9.806;2022-08-21T02:55:30;19.83;;;7.63;;
66183;SDS011;52989;48.796;9.806;2022-08-21T02:57:57;16.17;;;7.72;;
66183;SDS011;52989;48.796;9.806;2022-08-21T03:00:24;15.85;;;8.27;;
66183;SDS011;52989;48.796;9.806;2022-08-21T03:02:51;86.55;;;9.93;;
66183;SDS011;52989;48.796;9.806;2022-08-21T03:05:18;71.85;;;9.95;;
66183;SDS011;52989;48.796;9.806;2022-08-21T03:07:45;23.30;;;8.10;;
66183;SDS011;52989;48.796;9.806;2022-08-21T03:10:12;27.05;;;8.75;;
66183;SDS011;52989;48.796;9.806;2022-08-21T03:12:38;10.85;;;8.18;;
66183;SDS011;52989;48.796;9.806;2022-08-21T03:15:04;14.55;;;7.43;;
66183;SDS011;52989;48.796;9.806;2022-08-21T03:17:32;11.10;;;7.40;;
66183;SDS011;52989;48.796;9.806;2022-08-21T03:19:58;10.00;;;6.20;;
66183;SDS011;52989;48.796;9.806;2022-08-21T03:22:24;14.48;;;5.88;;
66183;SDS011;52989;48.796;9.806;2022-08-21T03:24:51;16.55;;;6.85;;
66183;SDS011;52989;48.796;9.806;2022-08-21T03:27:17;9.88;;;6.88;;
66183;SDS011;52989;48.796;9.806;2022-08-21T03:29:42;11.93;;;7.25;;
66183;SDS011;52989;48.796;9.806;2022-08-21T03:32:08;17.65;;;7.28;;
66183;SDS011;52989;48.796;9.806;2022-08-21T03:34:34;11.18;;;7.43;;
66183;SDS011;52989;48.796;9.806;2022-08-21T03:37:04;11.38;;;8.18;;
66183;SDS011;52989;48.796;9.806;2022-08-21T03:39:31;12.23;;;7.53;;
66183;SDS011;52989;48.796;9.806;2022-08-21T03:41:56;17.17;;;8.48;;
66183;SDS011;52989;48.796;9.806;2022-08-21T03:44:24;18.33;;;8.75;;
66183;SDS011;52989;48.796;9.806;2022-08-21T03:46:50;18.23;;;9.48;;
66183;SDS011;52989;48.796;9.806;2022-08-21T03:49:16;50.63;;;9.93;;
66183;SDS011;52989;48.796;9.806;2022-08-21T03:51:41;163.75;;;12.43;;
66183;SDS011;52989;48.796;9.806;2022-08-21T03:54:07;65.85;;;9.32;;
66183;SDS011;52989;48.796;9.806;2022-08-21T03:56:32;198.20;;;11.52;;
66183;SDS011;52989;48.796;9.806;2022-08-21T03:58:58;81.22;;;10.10;;
66183;SDS011;52989;48.796;9.806;2022-08-21T04:01:24;28.58;;;8.85;;
66183;SDS011;52989;48.796;9.806;2022-08-21T04:03:49;63.28;;;9.20;;
66183;SDS011;52989;48.796;9.806;2022-08-21T04:06:15;20.95;;;8.48;;
66183;SDS011;52989;48.796;9.806;2022-08-21T04:08:41;34.63;;;7.95;;
66183;SDS011;52989;48.796;9.806;2022-08-21T04:11:08;13.45;;;7.70;;
66183;SDS011;52989;48.796;9.806;2022-08-21T04:13:35;14.75;;;7.85;;
66183;SDS011;52989;48.796;9.806;2022-08-21T04:16:02;26.00;;;7.20;;
66183;SDS011;52989;48.796;9.806;2022-08-21T04:18:28;175.18;;;11.00;;
66183;SDS011;52989;48.796;9.806;2022-08-21T04:20:54;76.15;;;9.00;;
66183;SDS011;52989;48.796;9.806;2022-08-21T04:23:22;69.85;;;9.13;;
66183;SDS011;52989;48.796;9.806;2022-08-21T04:25:48;34.90;;;8.45;;
66183;SDS011;52989;48.796;9.806;2022-08-21T04:28:14;62.85;;;8.77;;
66183;SDS011;52989;48.796;9.806;2022-08-21T04:30:40;39.40;;;8.82;;
66183;SDS011;52989;48.796;9.806;2022-08-21T04:33:05;43.22;;;9.32;;
66183;SDS011;52989;48.796;9.806;2022-08-21T04:35:31;114.47;;;9.32;;
66183;SDS011;52989;48.796;9.806;2022-08-21T04:37:57;83.68;;;10.77;;
66183;SDS011;52989;48.796;9.806;2022-08-21T04:40:23;166.05;;;12.95;;
66183;SDS011;52989;48.796;9.806;2022-08-21T04:42:52;87.80;;;12.35;;
66183;SDS011;52989;48.796;9.806;2022-08-21T04:47:57;29.83;;;9.02;;
66183;SDS011;52989;48.796;9.806;2022-08-21T04:50:25;47.60;;;9.02;;
66183;SDS011;52989;48.796;9.806;2022-08-21T04:52:56;37.05;;;9.68;;
66183;SDS011;52989;48.796;9.806;2022-08-21T04:55:22;27.80;;;16.13;;
66183;SDS011;52989;48.796;9.806;2022-08-21T04:57:49;26.10;;;13.30;;
66183;SDS011;52989;48.796;9.806;2022-08-21T05:00:16;43.35;;;16.45;;
66183;SDS011;52989;48.796;9.806;2022-08-21T05:02:43;44.90;;;12.52;;
66183;SDS011;52989;48.796;9.806;2022-08-21T05:05:09;59.33;;;13.30;;
66183;SDS011;52989;48.796;9.806;2022-08-21T05:07:35;67.45;;;14.98;;
66183;SDS011;52989;48.796;9.806;2022-08-21T05:10:01;47.47;;;11.35;;
66183;SDS011;52989;48.796;9.806;2022-08-21T05:12:28;23.15;;;8.88;;
66183;SDS011;52989;48.796;9.806;2022-08-21T05:14:56;22.80;;;9.40;;
66183;SDS011;52989;48.796;9.806;2022-08-21T05:17:22;64.00;;;9.25;;
66183;SDS011;52989;48.796;9.806;2022-08-21T05:19:48;10.75;;;6.70;;
66183;SDS011;52989;48.796;9.806;2022-08-21T05:22:18;22.48;;;6.30;;
66183;SDS011;52989;48.796;9.806;2022-08-21T05:24:49;56.75;;;7.03;;
66183;SDS011;52989;48.796;9.806;2022-08-21T05:27:14;89.88;;;8.15;;
66183;SDS011;52989;48.796;9.806;2022-08-21T05:29:40;75.90;;;10.07;;
66183;SDS011;52989;48.796;9.806;2022-08-21T05:32:09;14.63;;;7.65;;
66183;SDS011;52989;48.796;9.806;2022-08-21T05:34:36;13.45;;;6.30;;
66183;SDS011;52989;48.796;9.806;2022-08-21T05:37:02;17.52;;;6.22;;
66183;SDS011;52989;48.796;9.806;2022-08-21T05:39:28;11.27;;;6.53;;
66183;SDS011;52989;48.796;9.806;2022-08-21T05:41:54;8.50;;;6.15;;
66183;SDS011;52989;48.796;9.806;2022-08-21T05:44:20;16.52;;;7.70;;
66183;SDS011;52989;48.796;9.806;2022-08-21T05:46:45;10.13;;;6.40;;
66183;SDS011;52989;48.796;9.806;2022-08-21T05:49:11;12.00;;;6.68;;
66183;SDS011;52989;48.796;9.806;2022-08-21T05:51:38;12.02;;;7.15;;
66183;SDS011;52989;48.796;9.806;2022-08-21T05:54:05;7.72;;;6.40;;
66183;SDS011;52989;48.796;9.806;2022-08-21T05:56:31;11.20;;;6.18;;
66183;SDS011;52989;48.796;9.806;2022-08-21T05:58:57;8.40;;;5.78;;
66183;SDS011;52989;48.796;9.806;2022-08-21T06:01:22;11.05;;;5.38;;
66183;SDS011;52989;48.796;9.806;2022-08-21T06:03:48;8.02;;;5.80;;
66183;SDS011;52989;48.796;9.806;2022-08-21T06:06:14;7.07;;;6.25;;
66183;SDS011;52989;48.796;9.806;2022-08-21T06:08:40;7.63;;;5.80;;
66183;SDS011;52989;48.796;9.806;2022-08-21T06:11:07;6.75;;;5.03;;
66183;SDS011;52989;48.796;9.806;2022-08-21T06:13:33;6.35;;;5.03;;
66183;SDS011;52989;48.796;9.806;2022-08-21T06:16:02;7.97;;;4.80;;
66183;SDS011;52989;48.796;9.806;2022-08-21T06:18:30;6.28;;;4.57;;
66183;SDS011;52989;48.796;9.806;2022-08-21T06:20:55;8.48;;;5.05;;
66183;SDS011;52989;48.796;9.806;2022-08-21T06:23:21;4.28;;;3.80;;
66183;SDS011;52989;48.796;9.806;2022-08-21T06:25:47;8.80;;;5.43;;
66183;SDS011;52989;48.796;9.806;2022-08-21T06:28:12;5.68;;;4.45;;
66183;SDS011;52989;48.796;9.806;2022-08-21T06:30:38;7.38;;;5.28;;
66183;SDS011;52989;48.796;9.806;2022-08-21T06:33:04;8.63;;;5.57;;
66183;SDS011;52989;48.796;9.806;2022-08-21T06:35:31;6.68;;;5.00;;
66183;SDS011;52989;48.796;9.806;2022-08-21T06:37:58;12.60;;;5.90;;
66183;SDS011;52989;48.796;9.806;2022-08-21T06:40:25;6.72;;;4.28;;
66183;SDS011;52989;48.796;9.806;2022-08-21T06:42:51;5.82;;;4.45;;
66183;SDS011;52989;48.796;9.806;2022-08-21T06:45:17;5.30;;;3.70;;
66183;SDS011;52989;48.796;9.806;2022-08-21T06:47:42;8.75;;;3.90;;
66183;SDS011;52989;48.796;9.806;2022-08-21T06:50:08;5.82;;;4.25;;
66183;SDS011;52989;48.796;9.806;2022-08-21T06:52:35;7.35;;;4.22;;
66183;SDS011;52989;48.796;9.806;2022-08-21T06:55:02;5.22;;;3.50;;
66183;SDS011;52989;48.796;9.806;2022-08-21T06:57:30;4.85;;;3.88;;
66183;SDS011;52989;48.796;9.806;2022-08-21T06:59:55;5.40;;;3.88;;
66183;SDS011;52989;48.796;9.806;2022-08-21T07:02:21;10.82;;;4.50;;
66183;SDS011;52989;48.796;9.806;2022-08-21T07:04:46;6.03;;;4.00;;
66183;SDS011;52989;48.796;9.806;2022-08-21T07:07:12;6.57;;;4.60;;
66183;SDS011;52989;48.796;9.806;2022-08-21T07:09:37;12.77;;;4.10;;
66183;SDS011;52989;48.796;9.806;2022-08-21T07:12:04;5.85;;;3.92;;
66183;SDS011;52989;48.796;9.806;2022-08-21T07:14:30;4.35;;;3.85;;
66183;SDS011;52989;48.796;9.806;2022-08-21T07:16:56;3.63;;;3.05;;
66183;SDS011;52989;48.796;9.806;2022-08-21T07:19:21;6.80;;;3.85;;
66183;SDS011;52989;48.796;9.806;2022-08-21T07:21:47;4.97;;;3.20;;
66183;SDS011;52989;48.796;9.806;2022-08-21T07:24:12;11.48;;;4.15;;
66183;SDS011;52989;48.796;9.806;2022-08-21T07:26:38;9.98;;;3.70;;
66183;SDS011;52989;48.796;9.806;2022-08-21T07:29:05;4.75;;;2.85;;
66183;SDS011;52989;48.796;9.806;2022-08-21T07:31:31;9.32;;;4.10;;
66183;SDS011;52989;48.796;9.806;2022-08-21T07:33:57;5.53;;;3.70;;
66183;SDS011;52989;48.796;9.806;2022-08-21T07:36:23;7.38;;;3.70;;
66183;SDS011;52989;48.796;9.806;2022-08-21T07:38:49;8.25;;;4.20;;
66183;SDS011;52989;48.796;9.806;2022-08-21T07:41:16;5.00;;;3.80;;
66183;SDS011;52989;48.796;9.806;2022-08-21T07:43:45;8.45;;;4.55;;
66183;SDS011;52989;48.796;9.806;2022-08-21T07:46:12;5.57;;;3.42;;
66183;SDS011;52989;48.796;9.806;2022-08-21T07:48:38;8.23;;;3.72;;
66183;SDS011;52989;48.796;9.806;2022-08-21T07:51:08;7.53;;;3.70;;
66183;SDS011;52989;48.796;9.806;2022-08-21T07:53:36;8.77;;;4.07;;
66183;SDS011;52989;48.796;9.806;2022-08-21T07:56:02;10.80;;;4.00;;
66183;SDS011;52989;48.796;9.806;2022-08-21T07:58:29;9.57;;;4.10;;
66183;SDS011;52989;48.796;9.806;2022-08-21T08:00:56;6.88;;;3.72;;
66183;SDS011;52989;48.796;9.806;2022-08-21T08:03:21;8.05;;;4.18;;
66183;SDS011;52989;48.796;9.806;2022-08-21T08:05:47;9.30;;;3.78;;
66183;SDS011;52989;48.796;9.806;2022-08-21T08:08:13;4.72;;;3.50;;
66183;SDS011;52989;48.796;9.806;2022-08-21T08:10:38;6.55;;;3.47;;
66183;SDS011;52989;48.796;9.806;2022-08-21T08:13:04;10.43;;;4.00;;
66183;SDS011;52989;48.796;9.806;2022-08-21T08:15:30;9.00;;;3.78;;
66183;SDS011;52989;48.796;9.806;2022-08-21T08:17:56;9.60;;;4.00;;
66183;SDS011;52989;48.796;9.806;2022-08-21T08:20:22;11.63;;;4.40;;
66183;SDS011;52989;48.796;9.806;2022-08-21T08:22:51;5.75;;;4.25;;
66183;SDS011;52989;48.796;9.806;2022-08-21T08:25:18;9.27;;;4.07;;
66183;SDS011;52989;48.796;9.806;2022-08-21T08:27:44;11.98;;;3.78;;
66183;SDS011;52989;48.796;9.806;2022-08-21T08:30:11;5.60;;;3.90;;
66183;SDS011;52989;48.796;9.806;2022-08-21T08:32:38;5.03;;;3.33;;
66183;SDS011;52989;48.796;9.806;2022-08-21T08:35:05;7.72;;;4.32;;
66183;SDS011;52989;48.796;9.806;2022-08-21T08:37:32;8.82;;;4.63;;
66183;SDS011;52989;48.796;9.806;2022-08-21T08:39:58;9.55;;;4.47;;
66183;SDS011;52989;48.796;9.806;2022-08-21T08:42:29;7.13;;;3.88;;
66183;SDS011;52989;48.796;9.806;2022-08-21T08:45:05;7.22;;;4.78;;
66183;SDS011;52989;48.796;9.806;2022-08-21T08:47:37;10.35;;;4.32;;
66183;SDS011;52989;48.796;9.806;2022-08-21T08:50:18;8.10;;;4.60;;
66183;SDS011;52989;48.796;9.806;2022-08-21T08:53:22;10.43;;;4.60;;
66183;SDS011;52989;48.796;9.806;2022-08-21T08:55:47;9.55;;;5.45;;
66183;SDS011;52989;48.796;9.806;2022-08-21T08:58:20;10.10;;;4.75;;
66183;SDS011;52989;48.796;9.806;2022-08-21T09:00:51;9.20;;;5.15;;
66183;SDS011;52989;48.796;9.806;2022-08-21T09:03:18;12.13;;;5.35;;
66183;SDS011;52989;48.796;9.806;2022-08-21T09:05:46;7.93;;;4.88;;
66183;SDS011;52989;48.796;9.806;2022-08-21T09:11:26;6.68;;;4.53;;
66183;SDS011;52989;48.796;9.806;2022-08-21T09:16:40;10.13;;;4.65;;
66183;SDS011;52989;48.796;9.806;2022-08-21T09:19:33;10.45;;;4.10;;
66183;SDS011;52989;48.796;9.806;2022-08-21T09:22:12;6.18;;;3.75;;
66183;SDS011;52989;48.796;9.806;2022-08-21T09:27:33;7.85;;;4.05;;
66183;SDS011;52989;48.796;9.806;2022-08-21T09:29:59;10.30;;;4.60;;
66183;SDS011;52989;48.796;9.806;2022-08-21T09:32:26;6.53;;;3.70;;
66183;SDS011;52989;48.796;9.806;2022-08-21T09:34:55;8.80;;;3.85;;
66183;SDS011;52989;48.796;9.806;2022-08-21T09:37:28;16.70;;;4.10;;
66183;SDS011;52989;48.796;9.806;2022-08-21T09:39:56;9.88;;;4.15;;
66183;SDS011;52989;48.796;9.806;2022-08-21T09:42:24;7.97;;;4.18;;
66183;SDS011;52989;48.796;9.806;2022-08-21T09:47:50;7.15;;;3.70;;
66183;SDS011;52989;48.796;9.806;2022-08-21T09:50:17;4.80;;;3.17;;
66183;SDS011;52989;48.796;9.806;2022-08-21T09:52:47;6.72;;;3.58;;
66183;SDS011;52989;48.796;9.806;2022-08-21T09:55:34;7.05;;;3.45;;
66183;SDS011;52989;48.796;9.806;2022-08-21T09:58:29;9.25;;;3.30;;
66183;SDS011;52989;48.796;9.806;2022-08-21T10:01:00;10.23;;;3.80;;
66183;SDS011;52989;48.796;9.806;2022-08-21T10:03:27;8.07;;;3.58;;
66183;SDS011;52989;48.796;9.806;2022-08-21T10:05:54;9.00;;;2.90;;
66183;SDS011;52989;48.796;9.806;2022-08-21T10:08:31;7.35;;;2.97;;
66183;SDS011;52989;48.796;9.806;2022-08-21T10:11:03;9.98;;;3.45;;
66183;SDS011;52989;48.796;9.806;2022-08-21T10:13:43;6.55;;;3.00;;
66183;SDS011;52989;48.796;9.806;2022-08-21T10:19:02;6.60;;;2.83;;
66183;SDS011;52989;48.796;9.806;2022-08-21T10:24:33;11.70;;;3.22;;
66183;SDS011;52989;48.796;9.806;2022-08-21T10:27:37;5.95;;;2.60;;
66183;SDS011;52989;48.796;9.806;2022-08-21T10:30:13;8.30;;;3.03;;
66183;SDS011;52989;48.796;9.806;2022-08-21T10:35:30;7.10;;;3.05;;
66183;SDS011;52989;48.796;9.806;2022-08-21T10:49:32;6.00;;;2.65;;
66183;SDS011;52989;48.796;9.806;2022-08-21T11:00:05;10.43;;;2.80;;
66183;SDS011;52989;48.796;9.806;2022-08-21T11:02:42;5.60;;;2.88;;
66183;SDS011;52989;48.796;9.806;2022-08-21T11:05:28;10.45;;;2.75;;
66183;SDS011;52989;48.796;9.806;2022-08-21T11:08:02;6.70;;;3.40;;
66183;SDS011;52989;48.796;9.806;2022-08-21T11:10:33;5.55;;;3.00;;
66183;SDS011;52989;48.796;9.806;2022-08-21T11:13:15;8.18;;;3.28;;
66183;SDS011;52989;48.796;9.806;2022-08-21T11:18:34;6.07;;;3.03;;
66183;SDS011;52989;48.796;9.806;2022-08-21T11:21:18;8.30;;;3.15;;
66183;SDS011;52989;48.796;9.806;2022-08-21T11:23:58;7.60;;;3.00;;
66183;SDS011;52989;48.796;9.806;2022-08-21T11:29:21;7.17;;;2.97;;
66183;SDS011;52989;48.796;9.806;2022-08-21T11:31:56;7.25;;;3.13;;
66183;SDS011;52989;48.796;9.806;2022-08-21T11:37:58;6.55;;;2.90;;
66183;SDS011;52989;48.796;9.806;2022-08-21T11:43:13;5.22;;;2.58;;
66183;SDS011;52989;48.796;9.806;2022-08-21T11:52:45;6.63;;;2.88;;
66183;SDS011;52989;48.796;9.806;2022-08-21T11:55:26;5.07;;;3.25;;
66183;SDS011;52989;48.796;9.806;2022-08-21T11:57:46;8.75;;;2.92;;
66183;SDS011;52989;48.796;9.806;2022-08-21T12:00:24;5.80;;;2.90;;
66183;SDS011;52989;48.796;9.806;2022-08-21T12:02:58;6.70;;;3.15;;
66183;SDS011;52989;48.796;9.806;2022-08-21T12:05:33;5.47;;;2.83;;
66183;SDS011;52989;48.796;9.806;2022-08-21T12:08:10;7.53;;;3.20;;
66183;SDS011;52989;48.796;9.806;2022-08-21T12:16:36;6.00;;;2.92;;
66183;SDS011;52989;48.796;9.806;2022-08-21T12:19:28;7.03;;;2.90;;
66183;SDS011;52989;48.796;9.806;2022-08-21T12:21:59;6.95;;;2.97;;
66183;SDS011;52989;48.796;9.806;2022-08-21T12:24:38;6.25;;;2.90;;
66183;SDS011;52989;48.796;9.806;2022-08-21T12:27:21;6.13;;;2.53;;
66183;SDS011;52989;48.796;9.806;2022-08-21T12:30:06;5.80;;;2.75;;
66183;SDS011;52989;48.796;9.806;2022-08-21T12:32:53;4.82;;;2.63;;
66183;SDS011;52989;48.796;9.806;2022-08-21T12:38:08;5.28;;;2.50;;
66183;SDS011;52989;48.796;9.806;2022-08-21T12:40:46;5.15;;;2.63;;
66183;SDS011;52989;48.796;9.806;2022-08-21T12:43:19;4.45;;;2.88;;
66183;SDS011;52989;48.796;9.806;2022-08-21T12:45:57;4.82;;;2.70;;
66183;SDS011;52989;48.796;9.806;2022-08-21T12:48:31;4.78;;;3.03;;
66183;SDS011;52989;48.796;9.806;2022-08-21T12:51:10;4.78;;;2.78;;
66183;SDS011;52989;48.796;9.806;2022-08-21T12:56:12;7.10;;;2.90;;
66183;SDS011;52989;48.796;9.806;2022-08-21T12:59:02;3.67;;;2.50;;
66183;SDS011;52989;48.796;9.806;2022-08-21T13:01:36;4.85;;;2.67;;
66183;SDS011;52989;48.796;9.806;2022-08-21T13:04:07;10.27;;;3.03;;
66183;SDS011;52989;48.796;9.806;2022-08-21T13:06:38;6.10;;;2.85;;
66183;SDS011;52989;48.796;9.806;2022-08-21T13:09:18;4.70;;;2.50;;
66183;SDS011;52989;48.796;9.806;2022-08-21T13:11:48;6.28;;;2.90;;
66183;SDS011;52989;48.796;9.806;2022-08-21T13:14:24;6.50;;;2.80;;
66183;SDS011;52989;48.796;9.806;2022-08-21T13:17:00;4.57;;;2.47;;
66183;SDS011;52989;48.796;9.806;2022-08-21T13:19:29;8.70;;;3.08;;
66183;SDS011;52989;48.796;9.806;2022-08-21T13:21:55;5.85;;;2.85;;
66183;SDS011;52989;48.796;9.806;2022-08-21T13:24:26;14.10;;;2.45;;
66183;SDS011;52989;48.796;9.806;2022-08-21T13:26:59;5.55;;;2.60;;
66183;SDS011;52989;48.796;9.806;2022-08-21T13:29:29;4.15;;;2.40;;
66183;SDS011;52989;48.796;9.806;2022-08-21T13:31:58;6.13;;;2.60;;
66183;SDS011;52989;48.796;9.806;2022-08-21T13:34:28;7.47;;;2.72;;
66183;SDS011;52989;48.796;9.806;2022-08-21T13:36:57;6.50;;;2.42;;
66183;SDS011;52989;48.796;9.806;2022-08-21T13:39:25;4.80;;;2.40;;
66183;SDS011;52989;48.796;9.806;2022-08-21T13:41:52;6.82;;;2.33;;
66183;SDS011;52989;48.796;9.806;2022-08-21T13:44:22;3.47;;;2.22;;
66183;SDS011;52989;48.796;9.806;2022-08-21T13:47:02;5.57;;;2.58;;
66183;SDS011;52989;48.796;9.806;2022-08-21T13:49:30;4.95;;;2.58;;
66183;SDS011;52989;48.796;9.806;2022-08-21T13:52:02;4.47;;;2.20;;
66183;SDS011;52989;48.796;9.806;2022-08-21T13:54:33;5.82;;;2.60;;
66183;SDS011;52989;48.796;9.806;2022-08-21T13:57:01;4.43;;;2.25;;
66183;SDS011;52989;48.796;9.806;2022-08-21T13:59:27;5.18;;;2.53;;
66183;SDS011;52989;48.796;9.806;2022-08-21T14:04:41;5.80;;;2.63;;
66183;SDS011;52989;48.796;9.806;2022-08-21T14:07:34;9.20;;;2.38;;
66183;SDS011;52989;48.796;9.806;2022-08-21T14:10:03;8.70;;;3.03;;
66183;SDS011;52989;48.796;9.806;2022-08-21T14:12:53;4.72;;;2.00;;
66183;SDS011;52989;48.796;9.806;2022-08-21T14:15:23;4.88;;;2.17;;
66183;SDS011;52989;48.796;9.806;2022-08-21T14:17:53;6.07;;;2.30;;
66183;SDS011;52989;48.796;9.806;2022-08-21T14:20:34;3.88;;;2.40;;
66183;SDS011;52989;48.796;9.806;2022-08-21T14:23:00;8.80;;;2.40;;
66183;SDS011;52989;48.796;9.806;2022-08-21T14:25:28;4.63;;;2.42;;
66183;SDS011;52989;48.796;9.806;2022-08-21T14:30:48;3.95;;;2.30;;
66183;SDS011;52989;48.796;9.806;2022-08-21T14:33:23;3.85;;;2.10;;
66183;SDS011;52989;48.796;9.806;2022-08-21T14:35:52;4.07;;;2.15;;
66183;SDS011;52989;48.796;9.806;2022-08-21T14:38:19;6.97;;;2.53;;
66183;SDS011;52989;48.796;9.806;2022-08-21T14:40:50;5.82;;;2.33;;
66183;SDS011;52989;48.796;9.806;2022-08-21T14:43:19;4.05;;;1.90;;
66183;SDS011;52989;48.796;9.806;2022-08-21T14:45:46;4.60;;;1.98;;
66183;SDS011;52989;48.796;9.806;2022-08-21T14:48:12;7.45;;;2.30;;
66183;SDS011;52989;48.796;9.806;2022-08-21T14:50:38;5.90;;;2.33;;
66183;SDS011;52989;48.796;9.806;2022-08-21T14:53:04;5.55;;;2.05;;
66183;SDS011;52989;48.796;9.806;2022-08-21T14:55:31;5.25;;;2.38;;
66183;SDS011;52989;48.796;9.806;2022-08-21T14:58:20;5.90;;;2.05;;
66183;SDS011;52989;48.796;9.806;2022-08-21T15:00:47;5.32;;;2.08;;
66183;SDS011;52989;48.796;9.806;2022-08-21T15:03:12;3.75;;;1.80;;
66183;SDS011;52989;48.796;9.806;2022-08-21T15:05:38;3.63;;;2.17;;
66183;SDS011;52989;48.796;9.806;2022-08-21T15:08:03;5.95;;;2.28;;
66183;SDS011;52989;48.796;9.806;2022-08-21T15:10:29;9.07;;;2.03;;
66183;SDS011;52989;48.796;9.806;2022-08-21T15:12:57;5.82;;;1.98;;
66183;SDS011;52989;48.796;9.806;2022-08-21T15:15:23;5.07;;;2.33;;
66183;SDS011;52989;48.796;9.806;2022-08-21T15:17:48;4.38;;;2.22;;
66183;SDS011;52989;48.796;9.806;2022-08-21T15:20:14;3.22;;;1.85;;
66183;SDS011;52989;48.796;9.806;2022-08-21T15:22:40;3.85;;;2.20;;
66183;SDS011;52989;48.796;9.806;2022-08-21T15:25:05;5.03;;;2.50;;
66183;SDS011;52989;48.796;9.806;2022-08-21T15:27:31;4.07;;;2.00;;
66183;SDS011;52989;48.796;9.806;2022-08-21T15:29:57;3.67;;;2.00;;
66183;SDS011;52989;48.796;9.806;2022-08-21T15:32:24;2.83;;;1.70;;
66183;SDS011;52989;48.796;9.806;2022-08-21T15:34:53;4.40;;;1.90;;
66183;SDS011;52989;48.796;9.806;2022-08-21T15:37:20;4.63;;;2.08;;
66183;SDS011;52989;48.796;9.806;2022-08-21T15:39:46;4.82;;;2.20;;
66183;SDS011;52989;48.796;9.806;2022-08-21T15:42:12;5.30;;;2.05;;
66183;SDS011;52989;48.796;9.806;2022-08-21T15:44:38;5.40;;;2.20;;
66183;SDS011;52989;48.796;9.806;2022-08-21T15:47:05;4.28;;;2.10;;
66183;SDS011;52989;48.796;9.806;2022-08-21T15:49:36;4.85;;;2.60;;
66183;SDS011;52989;48.796;9.806;2022-08-21T15:52:01;4.60;;;2.00;;
66183;SDS011;52989;48.796;9.806;2022-08-21T15:54:27;4.72;;;2.53;;
66183;SDS011;52989;48.796;9.806;2022-08-21T15:56:52;5.18;;;2.40;;
66183;SDS011;52989;48.796;9.806;2022-08-21T15:59:19;3.63;;;2.10;;
66183;SDS011;52989;48.796;9.806;2022-08-21T16:01:47;4.95;;;2.20;;
66183;SDS011;52989;48.796;9.806;2022-08-21T16:04:24;3.88;;;2.15;;
66183;SDS011;52989;48.796;9.806;2022-08-21T16:06:51;5.53;;;2.13;;
66183;SDS011;52989;48.796;9.806;2022-08-21T16:09:17;5.53;;;2.17;;
66183;SDS011;52989;48.796;9.806;2022-08-21T16:11:43;3.97;;;2.10;;
66183;SDS011;52989;48.796;9.806;2022-08-21T16:14:10;5.57;;;2.17;;